CET,Max TemperatureF,Mean TemperatureF,Min TemperatureF,Max Dew PointF,MeanDew PointF,Min DewpointF,Max Humidity, Mean Humidity, Min Humidity, Max Sea Level PressureIn, Mean Sea Level PressureIn, Min Sea Level PressureIn, Max VisibilityMiles, Mean VisibilityMiles, Min VisibilityMiles, Max Wind SpeedMPH, Mean Wind SpeedMPH, Max Gust SpeedMPH,PrecipitationIn, CloudCover, Events, WindDirDegrees
2012-10-1,82,69,56,63,58,48,78,65,39,30.14,30.08,30.02,19,9,6,12,7,,0.00,6,Rain,55
2012-10-2,70,66,62,64,64,61,100,90,81,30.09,30.02,29.94,9,5,3,14,6,30,0.12,6,Rain-Thunderstorm,52
2012-10-3,65,62,58,60,57,55,100,88,68,30.06,30.02,29.98,9,4,0,15,9,,0.00,7,Fog-Rain,208
2012-10-4,72,59,47,55,53,46,100,76,44,30.09,30.04,29.97,12,5,2,6,3,,0.00,1,Fog,188
2012-10-5,67,56,47,54,48,44,100,71,34,30.15,30.11,30.01,19,6,3,14,5,,0.00,5,,246
2012-10-6,74,60,45,50,45,39,87,56,21,30.17,30.11,30.03,19,17,16,12,5,,0.00,,,189
2012-10-7,68,59,50,57,53,46,88,77,61,29.99,29.87,29.74,6,6,5,18,6,46,0.12,6,,194
2012-10-8,61,49,39,43,40,36,93,65,38,30.09,30.07,29.96,19,7,6,11,6,,0.00,3,,270
2012-10-9,60,46,33,41,38,32,100,67,37,30.05,29.93,29.86,19,8,6,12,6,,0.00,2,,192
2012-10-10,60,52,45,43,37,34,82,56,31,29.95,29.91,29.86,16,12,7,21,7,,0.00,,,33
2012-10-11,60,48,37,43,38,34,93,64,33,29.98,29.96,29.92,19,8,6,6,3,,0.00,2,,218
2012-10-12,59,46,34,43,39,33,93,70,42,30.02,29.99,29.95,16,7,4,11,5,,0.00,6,Rain,65
2012-10-13,63,54,44,43,42,41,87,65,37,30.01,29.99,29.95,11,6,4,8,4,,0.00,6,,11
2012-10-14,59,52,46,54,49,43,94,82,71,29.92,29.85,29.83,6,5,4,7,3,,0.00,7,,110
2012-10-15,71,62,53,57,55,53,100,79,53,29.86,29.84,29.82,12,5,2,12,5,,0.00,6,,115
2012-10-16,73,62,51,61,56,50,94,74,50,29.95,29.82,29.77,19,8,4,20,8,28,0.00,7,Rain,135
2012-10-17,61,53,46,46,44,43,93,72,43,30.24,30.16,30.02,19,7,3,18,12,,0.00,4,Rain,219
2012-10-18,69,54,39,48,42,39,100,64,25,30.30,30.25,30.21,19,14,6,8,5,,0.00,,,71
2012-10-19,75,58,42,48,45,41,93,61,23,30.24,30.20,30.15,12,7,3,6,4,,0.00,,Fog,86
2012-10-20,77,59,41,52,47,41,93,61,28,30.16,30.14,30.12,19,15,9,6,3,,0.00,,,69
2012-10-21,69,54,39,50,47,39,100,74,42,30.22,30.18,30.15,12,3,1,7,2,,0.00,,Fog,42
2012-10-22,69,53,37,52,46,37,100,77,45,30.24,30.19,30.15,9,3,0,6,2,,0.00,1,Fog,17
2012-10-23,65,50,35,52,45,36,100,80,51,30.21,30.19,30.18,12,2,0,10,4,,0.00,,Fog,31
2012-10-24,59,50,40,46,44,39,100,80,59,30.17,30.11,30.06,9,6,4,5,2,,0.00,6,,342
2012-10-25,53,48,43,46,45,44,93,83,69,30.04,29.96,29.88,4,3,2,12,6,,0.00,7,,228
2012-10-26,60,50,41,45,43,40,100,76,43,29.86,29.84,29.80,7,5,1,13,9,,0.00,4,,240
2012-10-27,64,53,42,54,47,41,93,72,48,29.67,29.37,29.27,9,6,5,23,12,,0.24,7,Rain-Thunderstorm,163
2012-10-28,40,38,35,54,35,30,94,86,68,29.80,29.62,29.32,19,6,2,18,13,28,0.24,7,Rain,16
2012-10-29,38,36,35,36,34,31,93,90,77,29.83,29.79,29.74,12,5,3,16,9,,0.08,7,Rain,340
2012-10-30,41,37,33,36,33,30,93,83,65,29.89,29.84,29.80,6,4,1,15,8,,0.00,6,,227
2012-10-31,49,39,28,32,29,23,100,61,32,30.04,30.01,29.98,12,7,4,11,6,,0.00,1,,126